sensor_id;sensor_type;location;lat;lon;timestamp;pressure;altitude;pressure_sealevel;temperature;humidity
65546;BME280;52177;55.968;37.498;2022-11-20T00:00:24;99804.38;;;-3.28;81.43
65546;BME280;52177;55.968;37.498;2022-11-20T00:00:54;99802.66;;;-3.29;81.29
65546;BME280;52177;55.968;37.498;2022-11-20T00:01:26;99809.59;;;-3.28;81.35
65546;BME280;52177;55.968;37.498;2022-11-20T00:01:56;99811.25;;;-3.27;81.48
65546;BME280;52177;55.968;37.498;2022-11-20T00:02:26;99802.50;;;-3.26;81.41
65546;BME280;52177;55.968;37.498;2022-11-20T00:02:57;99808.56;;;-3.25;81.48
65546;BME280;52177;55.968;37.498;2022-11-20T00:03:27;99799.06;;;-3.26;81.41
65546;BME280;52177;55.968;37.498;2022-11-20T00:03:58;99812.84;;;-3.24;81.54
65546;BME280;52177;55.968;37.498;2022-11-20T00:04:28;99801.66;;;-3.26;81.29
65546;BME280;52177;55.968;37.498;2022-11-20T00:04:59;99807.69;;;-3.26;81.41
65546;BME280;52177;55.968;37.498;2022-11-20T00:05:32;99812.00;;;-3.25;81.18
65546;BME280;52177;55.968;37.498;2022-11-20T00:06:08;99811.19;;;-3.25;81.31
65546;BME280;52177;55.968;37.498;2022-11-20T00:06:39;99813.84;;;-3.27;81.48
65546;BME280;52177;55.968;37.498;2022-11-20T00:07:09;99801.66;;;-3.26;81.53
65546;BME280;52177;55.968;37.498;2022-11-20T00:07:40;99811.19;;;-3.25;81.56
65546;BME280;52177;55.968;37.498;2022-11-20T00:08:10;99811.06;;;-3.24;81.52
65546;BME280;52177;55.968;37.498;2022-11-20T00:08:41;99810.16;;;-3.23;81.62
65546;BME280;52177;55.968;37.498;2022-11-20T00:09:12;99809.28;;;-3.23;81.51
65546;BME280;52177;55.968;37.498;2022-11-20T00:09:42;99804.09;;;-3.23;81.54
65546;BME280;52177;55.968;37.498;2022-11-20T00:10:13;99801.47;;;-3.23;81.40
65546;BME280;52177;55.968;37.498;2022-11-20T00:10:43;99809.28;;;-3.23;81.40
65546;BME280;52177;55.968;37.498;2022-11-20T00:11:18;99812.66;;;-3.21;81.46
65546;BME280;52177;55.968;37.498;2022-11-20T00:11:49;99804.84;;;-3.21;81.38
65546;BME280;52177;55.968;37.498;2022-11-20T00:12:19;99810.22;;;-3.24;81.33
65546;BME280;52177;55.968;37.498;2022-11-20T00:12:50;99807.63;;;-3.24;81.35
65546;BME280;52177;55.968;37.498;2022-11-20T00:13:20;99811.19;;;-3.25;81.35
65546;BME280;52177;55.968;37.498;2022-11-20T00:13:53;99812.00;;;-3.25;81.39
65546;BME280;52177;55.968;37.498;2022-11-20T00:14:24;99811.19;;;-3.25;81.38
65546;BME280;52177;55.968;37.498;2022-11-20T00:14:54;99817.28;;;-3.26;81.40
65546;BME280;52177;55.968;37.498;2022-11-20T00:15:24;99812.91;;;-3.26;81.44
65546;BME280;52177;55.968;37.498;2022-11-20T00:15:58;99806.03;;;-3.27;81.52
65546;BME280;52177;55.968;37.498;2022-11-20T00:16:31;99813.03;;;-3.27;81.46
65546;BME280;52177;55.968;37.498;2022-11-20T00:17:02;99808.66;;;-3.27;81.50
65546;BME280;52177;55.968;37.498;2022-11-20T00:17:32;99813.03;;;-3.27;81.40
65546;BME280;52177;55.968;37.498;2022-11-20T00:18:02;99814.88;;;-3.29;81.41
65546;BME280;52177;55.968;37.498;2022-11-20T00:18:33;99816.66;;;-3.30;81.56
65546;BME280;52177;55.968;37.498;2022-11-20T00:19:04;99812.25;;;-3.29;81.55
65546;BME280;52177;55.968;37.498;2022-11-20T00:19:34;99814.88;;;-3.29;81.56
65546;BME280;52177;55.968;37.498;2022-11-20T00:20:05;99813.09;;;-3.29;81.53
65546;BME280;52177;55.968;37.498;2022-11-20T00:20:35;99813.34;;;-3.33;81.54
65546;BME280;52177;55.968;37.498;2022-11-20T00:21:10;99815.97;;;-3.33;81.59
65546;BME280;52177;55.968;37.498;2022-11-20T00:21:41;99817.66;;;-3.32;81.69
65546;BME280;52177;55.968;37.498;2022-11-20T00:22:11;99811.69;;;-3.34;81.73
65546;BME280;52177;55.968;37.498;2022-11-20T00:22:41;99816.03;;;-3.35;81.52
65546;BME280;52177;55.968;37.498;2022-11-20T00:23:12;99822.94;;;-3.34;81.50
65546;BME280;52177;55.968;37.498;2022-11-20T00:23:43;99817.81;;;-3.35;81.64
65546;BME280;52177;55.968;37.498;2022-11-20T00:24:13;99810.81;;;-3.35;81.56
65546;BME280;52177;55.968;37.498;2022-11-20T00:24:43;99813.44;;;-3.35;81.62
65546;BME280;52177;55.968;37.498;2022-11-20T00:25:14;99815.31;;;-3.37;81.51
65546;BME280;52177;55.968;37.498;2022-11-20T00:25:44;99813.53;;;-3.36;81.61
65546;BME280;52177;55.968;37.498;2022-11-20T00:26:16;99812.59;;;-3.35;81.75
65546;BME280;52177;55.968;37.498;2022-11-20T00:26:47;99810.00;;;-3.35;81.60
65546;BME280;52177;55.968;37.498;2022-11-20T00:27:17;99817.72;;;-3.34;81.78
65546;BME280;52177;55.968;37.498;2022-11-20T00:27:47;99815.97;;;-3.33;81.67
65546;BME280;52177;55.968;37.498;2022-11-20T00:28:18;99819.31;;;-3.31;81.63
65546;BME280;52177;55.968;37.498;2022-11-20T00:28:50;99817.47;;;-3.29;81.77
65546;BME280;52177;55.968;37.498;2022-11-20T00:29:21;99817.66;;;-3.32;81.67
65546;BME280;52177;55.968;37.498;2022-11-20T00:29:51;99823.72;;;-3.32;81.74
65546;BME280;52177;55.968;37.498;2022-11-20T00:30:22;99816.72;;;-3.31;81.69
65546;BME280;52177;55.968;37.498;2022-11-20T00:30:52;99823.59;;;-3.30;81.58
65546;BME280;52177;55.968;37.498;2022-11-20T00:31:23;99816.72;;;-3.31;81.49
65546;BME280;52177;55.968;37.498;2022-11-20T00:31:53;99820.16;;;-3.31;81.38
65546;BME280;52177;55.968;37.498;2022-11-20T00:32:23;99814.28;;;-3.34;81.43
65546;BME280;52177;55.968;37.498;2022-11-20T00:32:56;99815.13;;;-3.34;81.35
65546;BME280;52177;55.968;37.498;2022-11-20T00:33:27;99816.97;;;-3.36;81.30
65546;BME280;52177;55.968;37.498;2022-11-20T00:33:58;99815.31;;;-3.37;81.44
65546;BME280;52177;55.968;37.498;2022-11-20T00:34:28;99813.69;;;-3.40;81.55
65546;BME280;52177;55.968;37.498;2022-11-20T00:34:58;99817.16;;;-3.39;81.56
65546;BME280;52177;55.968;37.498;2022-11-20T00:35:29;99812.09;;;-3.42;81.51
65546;BME280;52177;55.968;37.498;2022-11-20T00:36:05;99819.91;;;-3.42;81.48
65546;BME280;52177;55.968;37.498;2022-11-20T00:36:35;99816.41;;;-3.41;81.67
65546;BME280;52177;55.968;37.498;2022-11-20T00:37:06;99813.78;;;-3.41;81.71
65546;BME280;52177;55.968;37.498;2022-11-20T00:37:36;99817.16;;;-3.39;81.77
65546;BME280;52177;55.968;37.498;2022-11-20T00:38:06;99821.44;;;-3.38;81.70
65546;BME280;52177;55.968;37.498;2022-11-20T00:38:37;99814.44;;;-3.37;81.73
65546;BME280;52177;55.968;37.498;2022-11-20T00:39:07;99817.81;;;-3.35;81.74
65546;BME280;52177;55.968;37.498;2022-11-20T00:39:37;99813.44;;;-3.35;81.81
65546;BME280;52177;55.968;37.498;2022-11-20T00:40:08;99820.41;;;-3.35;81.64
65546;BME280;52177;55.968;37.498;2022-11-20T00:40:39;99818.66;;;-3.35;81.72
65546;BME280;52177;55.968;37.498;2022-11-20T00:41:11;99812.53;;;-3.34;81.70
65546;BME280;52177;55.968;37.498;2022-11-20T00:41:42;99811.69;;;-3.34;81.71
65546;BME280;52177;55.968;37.498;2022-11-20T00:42:12;99813.28;;;-3.32;81.77
65546;BME280;52177;55.968;37.498;2022-11-20T00:42:42;99818.56;;;-3.33;81.57
65546;BME280;52177;55.968;37.498;2022-11-20T00:43:13;99813.34;;;-3.33;81.71
65546;BME280;52177;55.968;37.498;2022-11-20T00:43:43;99812.53;;;-3.34;81.59
65546;BME280;52177;55.968;37.498;2022-11-20T00:44:14;99817.81;;;-3.35;81.44
65546;BME280;52177;55.968;37.498;2022-11-20T00:44:44;99813.53;;;-3.36;81.61
65546;BME280;52177;55.968;37.498;2022-11-20T00:45:14;99816.13;;;-3.36;81.62
65546;BME280;52177;55.968;37.498;2022-11-20T00:45:44;99820.41;;;-3.35;81.49
65546;BME280;52177;55.968;37.498;2022-11-20T00:46:18;99818.66;;;-3.35;81.54
65546;BME280;52177;55.968;37.498;2022-11-20T00:46:48;99816.03;;;-3.35;81.67
65546;BME280;52177;55.968;37.498;2022-11-20T00:47:18;99816.03;;;-3.35;81.57
65546;BME280;52177;55.968;37.498;2022-11-20T00:47:49;99814.28;;;-3.34;81.61
65546;BME280;52177;55.968;37.498;2022-11-20T00:48:19;99812.53;;;-3.34;81.58
65546;BME280;52177;55.968;37.498;2022-11-20T00:48:49;99812.69;;;-3.37;81.39
65546;BME280;52177;55.968;37.498;2022-11-20T00:49:20;99810.81;;;-3.35;81.48
65546;BME280;52177;55.968;37.498;2022-11-20T00:49:50;99815.19;;;-3.35;81.47
65546;BME280;52177;55.968;37.498;2022-11-20T00:50:20;99810.00;;;-3.35;81.53
65546;BME280;52177;55.968;37.498;2022-11-20T00:50:51;99811.75;;;-3.36;81.37
65546;BME280;52177;55.968;37.498;2022-11-20T00:51:23;99810.09;;;-3.37;81.40
65546;BME280;52177;55.968;37.498;2022-11-20T00:51:54;99808.31;;;-3.36;81.60
65546;BME280;52177;55.968;37.498;2022-11-20T00:52:24;99816.97;;;-3.36;81.46
65546;BME280;52177;55.968;37.498;2022-11-20T00:52:54;99811.69;;;-3.34;81.57
65546;BME280;52177;55.968;37.498;2022-11-20T00:53:25;99815.97;;;-3.33;81.45
65546;BME280;52177;55.968;37.498;2022-11-20T00:53:57;99811.69;;;-3.34;81.44
65546;BME280;52177;55.968;37.498;2022-11-20T00:54:27;99817.56;;;-3.31;81.52
65546;BME280;52177;55.968;37.498;2022-11-20T00:54:58;99813.34;;;-3.33;81.43
65546;BME280;52177;55.968;37.498;2022-11-20T00:55:28;99810.75;;;-3.33;81.46
65546;BME280;52177;55.968;37.498;2022-11-20T00:56:07;99816.03;;;-3.35;81.45
65546;BME280;52177;55.968;37.498;2022-11-20T00:56:37;99813.53;;;-3.36;81.26
65546;BME280;52177;55.968;37.498;2022-11-20T00:57:08;99810.81;;;-3.35;81.32
65546;BME280;52177;55.968;37.498;2022-11-20T00:57:38;99815.19;;;-3.35;81.35
65546;BME280;52177;55.968;37.498;2022-11-20T00:58:08;99812.78;;;-3.38;81.21
65546;BME280;52177;55.968;37.498;2022-11-20T00:58:40;99815.38;;;-3.38;81.29
65546;BME280;52177;55.968;37.498;2022-11-20T00:59:11;99809.59;;;-3.44;81.00
65546;BME280;52177;55.968;37.498;2022-11-20T00:59:41;99815.72;;;-3.45;81.17
65546;BME280;52177;55.968;37.498;2022-11-20T01:00:12;99814.88;;;-3.45;81.19
65546;BME280;52177;55.968;37.498;2022-11-20T01:00:42;99811.50;;;-3.47;81.18
65546;BME280;52177;55.968;37.498;2022-11-20T01:01:24;99813.28;;;-3.48;81.17
65546;BME280;52177;55.968;37.498;2022-11-20T01:01:55;99807.13;;;-3.47;81.25
65546;BME280;52177;55.968;37.498;2022-11-20T01:02:25;99807.25;;;-3.48;81.10
65546;BME280;52177;55.968;37.498;2022-11-20T01:02:55;99800.44;;;-3.51;81.23
65546;BME280;52177;55.968;37.498;2022-11-20T01:03:26;99809.09;;;-3.50;81.27
65546;BME280;52177;55.968;37.498;2022-11-20T01:03:58;99808.16;;;-3.49;81.29
65546;BME280;52177;55.968;37.498;2022-11-20T01:04:29;99806.41;;;-3.49;81.36
65546;BME280;52177;55.968;37.498;2022-11-20T01:04:59;99805.53;;;-3.49;81.30
65546;BME280;52177;55.968;37.498;2022-11-20T01:05:34;99808.16;;;-3.49;81.39
65546;BME280;52177;55.968;37.498;2022-11-20T01:06:07;99802.19;;;-3.51;81.37
65546;BME280;52177;55.968;37.498;2022-11-20T01:06:38;99805.66;;;-3.51;81.30
65546;BME280;52177;55.968;37.498;2022-11-20T01:07:09;99808.25;;;-3.51;81.30
65546;BME280;52177;55.968;37.498;2022-11-20T01:07:39;99802.19;;;-3.51;81.42
65546;BME280;52177;55.968;37.498;2022-11-20T01:08:10;99801.34;;;-3.52;81.43
65546;BME280;52177;55.968;37.498;2022-11-20T01:08:41;99807.38;;;-3.51;81.55
65546;BME280;52177;55.968;37.498;2022-11-20T01:09:13;99804.72;;;-3.50;81.33
65546;BME280;52177;55.968;37.498;2022-11-20T01:09:44;99802.19;;;-3.51;81.24
65546;BME280;52177;55.968;37.498;2022-11-20T01:10:14;99809.16;;;-3.52;81.45
65546;BME280;52177;55.968;37.498;2022-11-20T01:10:45;99805.72;;;-3.52;81.47
65546;BME280;52177;55.968;37.498;2022-11-20T01:11:21;99802.28;;;-3.53;81.44
65546;BME280;52177;55.968;37.498;2022-11-20T01:11:52;99805.66;;;-3.51;81.56
65546;BME280;52177;55.968;37.498;2022-11-20T01:12:22;99802.94;;;-3.49;81.56
65546;BME280;52177;55.968;37.498;2022-11-20T01:12:52;99804.63;;;-3.48;81.69
65546;BME280;52177;55.968;37.498;2022-11-20T01:13:44;99808.00;;;-3.46;81.76
65546;BME280;52177;55.968;37.498;2022-11-20T01:14:19;99808.00;;;-3.46;81.56
65546;BME280;52177;55.968;37.498;2022-11-20T01:14:50;99810.59;;;-3.46;81.47
65546;BME280;52177;55.968;37.498;2022-11-20T01:15:20;99808.00;;;-3.46;81.61
65546;BME280;52177;55.968;37.498;2022-11-20T01:15:51;99806.22;;;-3.46;81.50
65546;BME280;52177;55.968;37.498;2022-11-20T01:16:28;99811.44;;;-3.46;81.69
65546;BME280;52177;55.968;37.498;2022-11-20T01:16:58;99801.09;;;-3.47;81.41
65546;BME280;52177;55.968;37.498;2022-11-20T01:17:31;99800.06;;;-3.45;81.65
65546;BME280;52177;55.968;37.498;2022-11-20T01:18:01;99806.16;;;-3.44;81.57
65546;BME280;52177;55.968;37.498;2022-11-20T01:18:31;99798.41;;;-3.46;81.29
65546;BME280;52177;55.968;37.498;2022-11-20T01:19:04;99806.22;;;-3.46;81.57
65546;BME280;52177;55.968;37.498;2022-11-20T01:19:35;99801.78;;;-3.44;81.42
65546;BME280;52177;55.968;37.498;2022-11-20T01:20:05;99808.75;;;-3.44;81.39
65546;BME280;52177;55.968;37.498;2022-11-20T01:20:36;99804.63;;;-3.48;81.37
65546;BME280;52177;55.968;37.498;2022-11-20T01:21:18;99803.81;;;-3.49;81.54
65546;BME280;52177;55.968;37.498;2022-11-20T01:21:51;99804.63;;;-3.48;81.37
65546;BME280;52177;55.968;37.498;2022-11-20T01:22:23;99802.03;;;-3.48;81.40
65546;BME280;52177;55.968;37.498;2022-11-20T01:22:53;99802.84;;;-3.48;81.59
65546;BME280;52177;55.968;37.498;2022-11-20T01:23:23;99805.38;;;-3.46;81.67
65546;BME280;52177;55.968;37.498;2022-11-20T01:23:54;99801.00;;;-3.46;81.62
65546;BME280;52177;55.968;37.498;2022-11-20T01:24:24;99806.16;;;-3.44;81.50
65546;BME280;52177;55.968;37.498;2022-11-20T01:24:55;99799.25;;;-3.45;81.56
65546;BME280;52177;55.968;37.498;2022-11-20T01:25:25;99805.22;;;-3.43;81.50
65546;BME280;52177;55.968;37.498;2022-11-20T01:25:55;99807.81;;;-3.43;81.51
65546;BME280;52177;55.968;37.498;2022-11-20T01:26:28;99801.59;;;-3.41;81.38
65546;BME280;52177;55.968;37.498;2022-11-20T01:26:59;99805.97;;;-3.41;81.24
65546;BME280;52177;55.968;37.498;2022-11-20T01:27:30;99800.84;;;-3.43;81.13
65546;BME280;52177;55.968;37.498;2022-11-20T01:28:00;99802.69;;;-3.45;81.05
65546;BME280;52177;55.968;37.498;2022-11-20T01:28:31;99796.63;;;-3.45;81.21
65546;BME280;52177;55.968;37.498;2022-11-20T01:29:03;99806.22;;;-3.46;81.18
65546;BME280;52177;55.968;37.498;2022-11-20T01:29:34;99803.63;;;-3.46;81.29
65546;BME280;52177;55.968;37.498;2022-11-20T01:30:04;99803.63;;;-3.46;81.38
65546;BME280;52177;55.968;37.498;2022-11-20T01:30:35;99801.00;;;-3.46;81.43
65546;BME280;52177;55.968;37.498;2022-11-20T01:31:20;99797.56;;;-3.46;81.36
65546;BME280;52177;55.968;37.498;2022-11-20T01:31:51;99805.38;;;-3.46;81.29
65546;BME280;52177;55.968;37.498;2022-11-20T01:32:22;99802.03;;;-3.48;81.24
65546;BME280;52177;55.968;37.498;2022-11-20T01:32:55;99802.94;;;-3.49;81.31
65546;BME280;52177;55.968;37.498;2022-11-20T01:33:25;99804.72;;;-3.50;81.30
65546;BME280;52177;55.968;37.498;2022-11-20T01:33:59;99802.09;;;-3.50;81.42
65546;BME280;52177;55.968;37.498;2022-11-20T01:34:29;99801.19;;;-3.49;81.41
65546;BME280;52177;55.968;37.498;2022-11-20T01:34:59;99810.75;;;-3.49;81.48
65546;BME280;52177;55.968;37.498;2022-11-20T01:35:30;99812.44;;;-3.48;81.48
65546;BME280;52177;55.968;37.498;2022-11-20T01:36:05;99809.75;;;-3.47;81.57
65546;BME280;52177;55.968;37.498;2022-11-20T01:36:36;99808.00;;;-3.46;81.60
65546;BME280;52177;55.968;37.498;2022-11-20T01:37:07;99812.28;;;-3.45;81.36
65546;BME280;52177;55.968;37.498;2022-11-20T01:37:37;99802.59;;;-3.43;81.33
65546;BME280;52177;55.968;37.498;2022-11-20T01:38:08;99806.22;;;-3.46;81.29
65546;BME280;52177;55.968;37.498;2022-11-20T01:38:38;99809.84;;;-3.48;81.25
65546;BME280;52177;55.968;37.498;2022-11-20T01:39:20;99815.06;;;-3.48;81.18
65546;BME280;52177;55.968;37.498;2022-11-20T01:39:51;99816.72;;;-3.47;81.41
65546;BME280;52177;55.968;37.498;2022-11-20T01:40:21;99814.03;;;-3.46;81.49
65546;BME280;52177;55.968;37.498;2022-11-20T01:40:55;99821.03;;;-3.46;81.31
65546;BME280;52177;55.968;37.498;2022-11-20T01:41:27;99809.66;;;-3.45;81.46
65546;BME280;52177;55.968;37.498;2022-11-20T01:42:17;99811.44;;;-3.46;81.41
65546;BME280;52177;55.968;37.498;2022-11-20T01:43:14;99813.09;;;-3.45;81.47
65546;BME280;52177;55.968;37.498;2022-11-20T01:43:52;99816.56;;;-3.44;81.38
65546;BME280;52177;55.968;37.498;2022-11-20T01:44:58;99820.91;;;-3.45;81.52
65546;BME280;52177;55.968;37.498;2022-11-20T01:46:37;99823.38;;;-3.42;81.57
65546;BME280;52177;55.968;37.498;2022-11-20T01:47:09;99813.88;;;-3.43;81.54
65546;BME280;52177;55.968;37.498;2022-11-20T01:47:44;99816.41;;;-3.41;81.41
65546;BME280;52177;55.968;37.498;2022-11-20T01:48:18;99809.41;;;-3.41;81.45
65546;BME280;52177;55.968;37.498;2022-11-20T01:49:03;99815.38;;;-3.38;81.41
65546;BME280;52177;55.968;37.498;2022-11-20T01:49:47;99818.00;;;-3.38;81.46
65546;BME280;52177;55.968;37.498;2022-11-20T01:50:26;99821.44;;;-3.38;81.35
65546;BME280;52177;55.968;37.498;2022-11-20T01:50:59;99819.59;;;-3.36;81.38
65546;BME280;52177;55.968;37.498;2022-11-20T01:51:44;99818.81;;;-3.38;81.16
65546;BME280;52177;55.968;37.498;2022-11-20T01:52:18;99824.03;;;-3.38;81.29
65546;BME280;52177;55.968;37.498;2022-11-20T01:53:00;99824.97;;;-3.39;81.15
65546;BME280;52177;55.968;37.498;2022-11-20T01:53:34;99820.53;;;-3.37;81.25
65546;BME280;52177;55.968;37.498;2022-11-20T01:54:12;99826.56;;;-3.36;81.36
65546;BME280;52177;55.968;37.498;2022-11-20T01:54:49;99826.47;;;-3.35;81.20
65546;BME280;52177;55.968;37.498;2022-11-20T01:55:23;99824.72;;;-3.34;81.25
65546;BME280;52177;55.968;37.498;2022-11-20T01:55:57;99826.38;;;-3.33;81.19
65546;BME280;52177;55.968;37.498;2022-11-20T01:56:31;99823.84;;;-3.35;81.43
65546;BME280;52177;55.968;37.498;2022-11-20T01:57:04;99825.56;;;-3.34;81.19
65546;BME280;52177;55.968;37.498;2022-11-20T01:57:37;99825.56;;;-3.34;81.11
65546;BME280;52177;55.968;37.498;2022-11-20T01:58:08;99821.25;;;-3.35;81.18
65546;BME280;52177;55.968;37.498;2022-11-20T01:58:43;99823.03;;;-3.35;81.07
65546;BME280;52177;55.968;37.498;2022-11-20T01:59:18;99823.03;;;-3.35;81.14
65546;BME280;52177;55.968;37.498;2022-11-20T01:59:54;99829.06;;;-3.35;81.08
65546;BME280;52177;55.968;37.498;2022-11-20T02:00:27;99823.84;;;-3.35;81.14
65546;BME280;52177;55.968;37.498;2022-11-20T02:00:57;99829.94;;;-3.34;81.25
65546;BME280;52177;55.968;37.498;2022-11-20T02:01:28;99828.16;;;-3.34;81.10
65546;BME280;52177;55.968;37.498;2022-11-20T02:01:58;99830.75;;;-3.34;81.21
65546;BME280;52177;55.968;37.498;2022-11-20T02:02:28;99834.22;;;-3.33;81.08
65546;BME280;52177;55.968;37.498;2022-11-20T02:03:03;99833.28;;;-3.32;81.18
65546;BME280;52177;55.968;37.498;2022-11-20T02:03:35;99834.13;;;-3.32;81.16
65546;BME280;52177;55.968;37.498;2022-11-20T02:04:07;99834.13;;;-3.32;81.25
65546;BME280;52177;55.968;37.498;2022-11-20T02:04:38;99833.13;;;-3.29;81.21
65546;BME280;52177;55.968;37.498;2022-11-20T02:05:27;99834.88;;;-3.30;81.05
65546;BME280;52177;55.968;37.498;2022-11-20T02:06:10;99833.03;;;-3.28;81.05
65546;BME280;52177;55.968;37.498;2022-11-20T02:06:46;99843.53;;;-3.29;81.17
65546;BME280;52177;55.968;37.498;2022-11-20T02:07:19;99833.13;;;-3.29;80.88
65546;BME280;52177;55.968;37.498;2022-11-20T02:07:50;99837.50;;;-3.30;80.93
65546;BME280;52177;55.968;37.498;2022-11-20T02:08:21;99834.97;;;-3.31;80.85
65546;BME280;52177;55.968;37.498;2022-11-20T02:08:53;99836.75;;;-3.32;80.87
65546;BME280;52177;55.968;37.498;2022-11-20T02:09:24;99846.34;;;-3.32;80.94
65546;BME280;52177;55.968;37.498;2022-11-20T02:09:55;99841.13;;;-3.32;80.94
65546;BME280;52177;55.968;37.498;2022-11-20T02:10:26;99837.75;;;-3.34;80.91
65546;BME280;52177;55.968;37.498;2022-11-20T02:10:57;99830.00;;;-3.36;80.83
65546;BME280;52177;55.968;37.498;2022-11-20T02:11:30;99841.25;;;-3.35;81.02
65546;BME280;52177;55.968;37.498;2022-11-20T02:12:00;99843.88;;;-3.35;81.10
65546;BME280;52177;55.968;37.498;2022-11-20T02:12:31;99830.84;;;-3.35;81.03
65546;BME280;52177;55.968;37.498;2022-11-20T02:13:20;99841.25;;;-3.35;81.29
65546;BME280;52177;55.968;37.498;2022-11-20T02:14:10;99842.19;;;-3.36;81.15
65546;BME280;52177;55.968;37.498;2022-11-20T02:14:40;99840.44;;;-3.36;81.20
65546;BME280;52177;55.968;37.498;2022-11-20T02:15:11;99842.97;;;-3.34;81.21
65546;BME280;52177;55.968;37.498;2022-11-20T02:15:42;99841.94;;;-3.32;81.24
65546;BME280;52177;55.968;37.498;2022-11-20T02:16:20;99840.19;;;-3.31;81.20
65546;BME280;52177;55.968;37.498;2022-11-20T02:16:51;99848.75;;;-3.29;81.07
65546;BME280;52177;55.968;37.498;2022-11-20T02:17:22;99841.00;;;-3.31;81.12
65546;BME280;52177;55.968;37.498;2022-11-20T02:17:53;99844.56;;;-3.32;80.99
65546;BME280;52177;55.968;37.498;2022-11-20T02:18:24;99850.78;;;-3.34;80.87
65546;BME280;52177;55.968;37.498;2022-11-20T02:18:56;99846.34;;;-3.32;81.09
65546;BME280;52177;55.968;37.498;2022-11-20T02:19:31;99848.06;;;-3.33;80.98
65546;BME280;52177;55.968;37.498;2022-11-20T02:20:02;99853.22;;;-3.31;81.11
65546;BME280;52177;55.968;37.498;2022-11-20T02:20:33;99848.75;;;-3.29;81.09
65546;BME280;52177;55.968;37.498;2022-11-20T02:21:09;99850.44;;;-3.28;81.08
65546;BME280;52177;55.968;37.498;2022-11-20T02:22:28;99852.97;;;-3.27;81.08
65546;BME280;52177;55.968;37.498;2022-11-20T02:23:06;99847.75;;;-3.27;81.08
65546;BME280;52177;55.968;37.498;2022-11-20T02:24:35;99845.22;;;-3.28;81.10
65546;BME280;52177;55.968;37.498;2022-11-20T02:25:06;99854.72;;;-3.27;81.04
65546;BME280;52177;55.968;37.498;2022-11-20T02:25:38;99849.53;;;-3.27;80.88
65546;BME280;52177;55.968;37.498;2022-11-20T02:26:12;99846.06;;;-3.28;80.98
65546;BME280;52177;55.968;37.498;2022-11-20T02:27:32;99845.22;;;-3.28;81.19
65546;BME280;52177;55.968;37.498;2022-11-20T02:28:03;99846.91;;;-3.27;81.17
65546;BME280;52177;55.968;37.498;2022-11-20T02:28:33;99851.94;;;-3.24;81.01
65546;BME280;52177;55.968;37.498;2022-11-20T02:29:04;99857.16;;;-3.24;81.03
65546;BME280;52177;55.968;37.498;2022-11-20T02:29:46;99845.91;;;-3.25;81.04
65546;BME280;52177;55.968;37.498;2022-11-20T02:30:18;99853.63;;;-3.23;81.05
65546;BME280;52177;55.968;37.498;2022-11-20T02:30:48;99852.03;;;-3.26;80.96
65546;BME280;52177;55.968;37.498;2022-11-20T02:31:19;99845.13;;;-3.27;80.97
65546;BME280;52177;55.968;37.498;2022-11-20T02:31:49;99854.72;;;-3.27;80.85
65546;BME280;52177;55.968;37.498;2022-11-20T02:32:32;99854.72;;;-3.27;80.91
65546;BME280;52177;55.968;37.498;2022-11-20T02:33:02;99859.94;;;-3.27;80.98
65546;BME280;52177;55.968;37.498;2022-11-20T02:33:33;99853.03;;;-3.28;80.99
65546;BME280;52177;55.968;37.498;2022-11-20T02:34:03;99854.81;;;-3.29;81.04
65546;BME280;52177;55.968;37.498;2022-11-20T02:34:33;99857.34;;;-3.27;81.13
65546;BME280;52177;55.968;37.498;2022-11-20T02:35:38;99855.50;;;-3.25;80.99
65546;BME280;52177;55.968;37.498;2022-11-20T02:36:00;99858.16;;;-3.27;81.09
65546;BME280;52177;55.968;37.498;2022-11-20T02:36:31;99861.72;;;-3.28;80.81
65546;BME280;52177;55.968;37.498;2022-11-20T02:37:02;99855.81;;;-3.31;80.80
65546;BME280;52177;55.968;37.498;2022-11-20T02:37:36;99866.25;;;-3.31;80.81
65546;BME280;52177;55.968;37.498;2022-11-20T02:38:08;99860.09;;;-3.30;80.91
65546;BME280;52177;55.968;37.498;2022-11-20T02:38:40;99861.03;;;-3.31;80.83
65546;BME280;52177;55.968;37.498;2022-11-20T02:39:11;99854.03;;;-3.31;80.99
65546;BME280;52177;55.968;37.498;2022-11-20T02:39:44;99865.31;;;-3.30;80.94
65546;BME280;52177;55.968;37.498;2022-11-20T02:40:16;99856.66;;;-3.31;80.98
65546;BME280;52177;55.968;37.498;2022-11-20T02:40:46;99861.78;;;-3.29;81.05
65546;BME280;52177;55.968;37.498;2022-11-20T02:41:16;99859.94;;;-3.27;81.14
65546;BME280;52177;55.968;37.498;2022-11-20T02:41:47;99857.41;;;-3.29;81.04
65546;BME280;52177;55.968;37.498;2022-11-20T02:42:18;99865.22;;;-3.29;81.07
65546;BME280;52177;55.968;37.498;2022-11-20T02:42:52;99848.75;;;-3.29;80.99
65546;BME280;52177;55.968;37.498;2022-11-20T02:43:23;99860.97;;;-3.30;80.90
65546;BME280;52177;55.968;37.498;2022-11-20T02:43:53;99857.50;;;-3.30;80.93
65546;BME280;52177;55.968;37.498;2022-11-20T02:44:23;99855.75;;;-3.30;80.95
65546;BME280;52177;55.968;37.498;2022-11-20T02:44:54;99857.34;;;-3.27;80.88
65546;BME280;52177;55.968;37.498;2022-11-20T02:45:24;99861.78;;;-3.29;80.89
65546;BME280;52177;55.968;37.498;2022-11-20T02:45:55;99854.03;;;-3.31;80.93
65546;BME280;52177;55.968;37.498;2022-11-20T02:46:25;99857.66;;;-3.33;80.69
65546;BME280;52177;55.968;37.498;2022-11-20T02:46:58;99865.56;;;-3.35;80.82
65546;BME280;52177;55.968;37.498;2022-11-20T02:47:29;99863.06;;;-3.36;80.71
65546;BME280;52177;55.968;37.498;2022-11-20T02:47:59;99864.72;;;-3.35;80.88
65546;BME280;52177;55.968;37.498;2022-11-20T02:48:30;99859.50;;;-3.35;80.91
65546;BME280;52177;55.968;37.498;2022-11-20T02:49:02;99862.94;;;-3.35;80.80
65546;BME280;52177;55.968;37.498;2022-11-20T02:49:32;99860.28;;;-3.33;80.84
65546;BME280;52177;55.968;37.498;2022-11-20T02:50:04;99864.56;;;-3.32;81.01
65546;BME280;52177;55.968;37.498;2022-11-20T02:50:38;99870.69;;;-3.33;81.03
65546;BME280;52177;55.968;37.498;2022-11-20T02:51:09;99867.25;;;-3.34;80.98
65546;BME280;52177;55.968;37.498;2022-11-20T02:51:40;99857.66;;;-3.33;81.02
65546;BME280;52177;55.968;37.498;2022-11-20T02:52:10;99862.88;;;-3.33;80.93
65546;BME280;52177;55.968;37.498;2022-11-20T02:52:41;99862.03;;;-3.34;80.84
65546;BME280;52177;55.968;37.498;2022-11-20T02:53:11;99863.63;;;-3.31;80.99